Time;durP1;ratioP1;P1;durP2;ratioP2;P2;SDS_P1;SDS_P2;PMS_P1;PMS_P2;Temp;Humidity;BMP_temperature;BMP_pressure;BME280_temperature;BME280_humidity;BME280_pressure;Samples;Min_cycle;Max_cycle;Signal;HPM_P1;HPM_P2
2022/06/07 00:02:06;;;;;;;14.35;10.50;;;12.90;99.90;;;;;;5074405;28;20482;-73
2022/06/07 00:04:33;;;;;;;13.57;10.27;;;13.00;99.90;;;;;;5066921;28;20389;-73
2022/06/07 00:06:58;;;;;;;13.63;10.70;;;12.90;99.90;;;;;;5071375;28;21702;-73
2022/06/07 00:09:24;;;;;;;16.63;11.98;;;12.90;99.90;;;;;;5074000;28;20449;-74
2022/06/07 00:11:51;;;;;;;13.82;11.13;;;12.80;99.90;;;;;;5070259;28;20383;-74
2022/06/07 00:14:16;;;;;;;13.95;10.55;;;13.00;99.90;;;;;;5072766;28;20380;-73
2022/06/07 00:16:42;;;;;;;17.50;11.00;;;13.00;99.90;;;;;;5073592;28;20852;-73
2022/06/07 00:19:08;;;;;;;20.17;12.75;;;13.00;99.90;;;;;;5069344;28;20764;-73
2022/06/07 00:21:33;;;;;;;18.63;13.53;;;12.90;99.90;;;;;;5070772;28;20391;-72
2022/06/07 00:24:00;;;;;;;23.33;13.50;;;12.90;99.90;;;;;;5050343;28;20749;-73
2022/06/07 00:26:29;;;;;;;18.30;11.20;;;12.90;99.90;;;;;;5057923;28;20486;-73
2022/06/07 00:28:55;;;;;;;19.42;12.98;;;12.80;99.90;;;;;;5073249;28;20415;-74
2022/06/07 00:31:21;;;;;;;14.43;11.68;;;12.80;99.90;;;;;;5067745;28;20392;-74
2022/06/07 00:33:48;;;;;;;20.23;13.55;;;12.70;99.90;;;;;;5073556;28;20406;-74
2022/06/07 00:36:14;;;;;;;17.27;12.77;;;12.70;99.90;;;;;;5062467;28;20757;-73
2022/06/07 00:38:43;;;;;;;18.13;13.40;;;12.70;99.90;;;;;;5074091;28;20397;-74
2022/06/07 00:41:12;;;;;;;16.55;12.80;;;12.70;99.90;;;;;;5055613;28;20508;-74
2022/06/07 00:43:39;;;;;;;18.60;11.43;;;12.70;99.90;;;;;;5070419;28;20881;-73
2022/06/07 00:46:11;;;;;;;20.45;12.32;;;12.60;99.90;;;;;;5077749;28;20963;-75
2022/06/07 00:48:38;;;;;;;26.00;14.48;;;12.60;99.90;;;;;;5069091;28;20658;-74
2022/06/07 00:51:11;;;;;;;21.83;14.23;;;12.60;99.90;;;;;;5075632;28;21004;-74
2022/06/07 00:53:37;;;;;;;16.23;12.30;;;12.60;99.90;;;;;;5072021;28;20474;-73
2022/06/07 00:56:05;;;;;;;19.10;13.30;;;12.80;99.90;;;;;;5072207;28;20387;-73
2022/06/07 00:58:31;;;;;;;17.17;12.85;;;12.80;99.90;;;;;;5072369;28;20387;-73
2022/06/07 01:00:57;;;;;;;18.90;12.50;;;12.70;99.90;;;;;;5072443;28;20963;-75
2022/06/07 01:03:24;;;;;;;21.33;14.80;;;12.80;99.90;;;;;;5072506;28;20422;-73
2022/06/07 01:05:51;;;;;;;22.67;14.70;;;12.70;99.90;;;;;;5072666;28;20380;-74
2022/06/07 01:11:02;;;;;;;19.63;14.63;;;12.60;99.90;;;;;;5072126;28;20398;-73
2022/06/07 01:13:32;;;;;;;24.15;15.02;;;12.50;99.90;;;;;;5072103;28;20399;-74
2022/06/07 01:16:06;;;;;;;23.52;14.70;;;12.50;99.90;;;;;;5062749;28;20395;-73
2022/06/07 01:18:32;;;;;;;21.50;14.87;;;12.50;99.90;;;;;;5072869;28;20440;-72
2022/06/07 01:21:14;;;;;;;20.48;14.45;;;12.50;99.90;;;;;;5064244;28;20392;-72
2022/06/07 01:23:42;;;;;;;23.48;15.85;;;12.50;99.90;;;;;;5067957;28;20407;-73
2022/06/07 01:26:08;;;;;;;20.43;15.27;;;12.50;99.90;;;;;;5064402;28;20881;-71
2022/06/07 01:28:34;;;;;;;24.98;15.68;;;12.50;99.90;;;;;;5072111;28;20400;-73
2022/06/07 01:30:59;;;;;;;22.38;16.42;;;12.50;99.90;;;;;;5071528;28;20391;-75
2022/06/07 01:33:25;;;;;;;25.07;16.27;;;12.50;99.90;;;;;;5071802;28;20407;-75
2022/06/07 01:38:25;;;;;;;24.13;16.53;;;12.60;99.90;;;;;;5055127;28;20419;-78
2022/06/07 01:43:35;;;;;;;26.63;16.60;;;12.50;99.90;;;;;;5055100;28;20473;-78
2022/06/07 01:46:05;;;;;;;23.23;15.70;;;12.50;99.90;;;;;;5056111;28;20399;-77
2022/06/07 01:48:30;;;;;;;26.10;16.63;;;12.40;99.90;;;;;;5062717;28;20413;-76
2022/06/07 01:51:05;;;;;;;21.52;16.00;;;12.40;99.90;;;;;;5052282;28;20386;-77
2022/06/07 01:53:31;;;;;;;23.05;16.00;;;12.40;99.90;;;;;;5059077;28;20776;-78
2022/06/07 01:56:07;;;;;;;22.53;15.70;;;12.40;99.90;;;;;;5047036;28;20389;-78
2022/06/07 01:58:33;;;;;;;23.90;16.15;;;12.40;99.90;;;;;;5052383;28;20390;-78
2022/06/07 02:00:59;;;;;;;22.63;13.95;;;12.30;99.90;;;;;;5063939;28;20406;-76
2022/06/07 02:03:25;;;;;;;19.27;14.90;;;12.40;99.90;;;;;;5064215;28;20391;-76
2022/06/07 02:05:59;;;;;;;21.50;13.90;;;12.40;99.90;;;;;;5059085;28;20389;-80
2022/06/07 02:08:26;;;;;;;22.95;16.10;;;12.30;99.90;;;;;;5076233;28;20451;-78
2022/06/07 02:10:52;;;;;;;22.15;14.80;;;12.30;99.90;;;;;;5046574;28;20402;-77
2022/06/07 02:13:19;;;;;;;22.73;15.60;;;12.30;99.90;;;;;;5066525;28;20409;-78
2022/06/07 02:15:45;;;;;;;23.98;14.95;;;12.20;99.90;;;;;;5065363;28;20381;-76
2022/06/07 02:18:11;;;;;;;24.58;15.23;;;12.20;99.90;;;;;;5075874;28;20909;-76
2022/06/07 02:20:37;;;;;;;18.85;13.88;;;12.20;99.90;;;;;;5057006;28;20404;-78
2022/06/07 02:23:03;;;;;;;25.88;13.15;;;12.10;99.90;;;;;;5065530;28;20403;-77
2022/06/07 02:25:30;;;;;;;17.45;12.65;;;12.20;99.90;;;;;;5070232;28;20429;-78
2022/06/07 02:27:56;;;;;;;18.85;13.30;;;12.20;99.90;;;;;;5074572;28;20395;-78
2022/06/07 02:30:22;;;;;;;13.45;9.55;;;12.10;99.90;;;;;;5053384;28;20391;-77
2022/06/07 02:32:47;;;;;;;13.05;9.15;;;12.20;99.90;;;;;;5041860;28;20406;-78
2022/06/07 02:35:13;;;;;;;13.05;8.90;;;12.20;99.90;;;;;;5066187;28;20453;-78
2022/06/07 02:37:39;;;;;;;16.83;8.90;;;12.30;99.90;;;;;;5073702;28;20405;-78
2022/06/07 02:40:06;;;;;;;9.53;7.07;;;12.30;99.90;;;;;;5062732;28;20459;-77
2022/06/07 02:42:32;;;;;;;10.88;7.20;;;12.40;99.90;;;;;;5053437;28;20411;-79
2022/06/07 02:44:58;;;;;;;13.90;7.20;;;12.40;98.50;;;;;;5052401;28;20486;-79
2022/06/07 02:47:24;;;;;;;11.90;6.97;;;12.40;97.10;;;;;;5067715;28;20394;-78
2022/06/07 02:49:52;;;;;;;13.20;8.07;;;12.30;98.00;;;;;;5067733;28;20402;-78
2022/06/07 02:52:18;;;;;;;17.25;9.35;;;12.30;98.80;;;;;;5057063;28;20385;-77
2022/06/07 02:54:44;;;;;;;12.50;9.20;;;12.30;98.70;;;;;;5056864;28;20484;-77
2022/06/07 02:57:09;;;;;;;16.80;9.80;;;12.30;99.60;;;;;;5066650;28;20483;-76
2022/06/07 02:59:35;;;;;;;15.70;9.93;;;12.20;99.90;;;;;;5075457;28;20393;-75
2022/06/07 03:02:01;;;;;;;17.40;10.00;;;12.20;99.90;;;;;;5069286;28;20413;-76
2022/06/07 03:04:26;;;;;;;18.02;9.65;;;12.20;99.90;;;;;;5067079;28;20385;-76
2022/06/07 03:06:52;;;;;;;17.13;10.20;;;12.10;99.90;;;;;;5053887;28;20391;-79
2022/06/07 03:09:18;;;;;;;20.23;9.97;;;12.10;99.90;;;;;;5037491;28;20390;-79
2022/06/07 03:11:43;;;;;;;12.55;9.13;;;12.00;99.90;;;;;;5050347;28;20418;-76
2022/06/07 03:14:10;;;;;;;11.00;8.95;;;12.10;99.90;;;;;;5047024;28;20397;-79
2022/06/07 03:16:36;;;;;;;14.02;9.00;;;12.00;99.90;;;;;;5057038;28;20389;-79
2022/06/07 03:19:02;;;;;;;14.70;9.25;;;12.00;99.90;;;;;;5039706;28;20722;-78
2022/06/07 03:21:28;;;;;;;14.70;8.70;;;11.90;99.90;;;;;;5051440;28;20389;-80
2022/06/07 03:23:55;;;;;;;14.00;8.40;;;11.90;99.90;;;;;;5043452;28;20481;-79
2022/06/07 03:26:21;;;;;;;12.38;9.20;;;11.90;99.90;;;;;;5051437;28;20396;-79
2022/06/07 03:28:47;;;;;;;12.00;7.80;;;11.80;99.90;;;;;;5057317;28;20470;-78
2022/06/07 03:31:15;;;;;;;14.55;8.70;;;11.90;99.90;;;;;;5039744;28;20381;-78
2022/06/07 03:33:42;;;;;;;13.55;8.70;;;11.90;99.90;;;;;;5036338;28;20411;-81
2022/06/07 03:36:12;;;;;;;10.98;7.43;;;11.90;99.90;;;;;;5037505;28;20725;-80
2022/06/07 03:38:39;;;;;;;14.40;8.13;;;11.90;99.90;;;;;;5037770;28;20405;-78
2022/06/07 03:41:05;;;;;;;10.27;7.40;;;11.90;99.90;;;;;;5036396;28;20455;-79
2022/06/07 03:43:30;;;;;;;12.07;7.63;;;11.90;99.90;;;;;;5048442;28;20411;-79
2022/06/07 03:45:56;;;;;;;15.40;7.40;;;12.00;99.90;;;;;;5043352;28;20431;-78
2022/06/07 03:48:22;;;;;;;19.67;7.80;;;12.00;99.90;;;;;;5059492;28;20413;-80
2022/06/07 03:50:48;;;;;;;10.48;7.15;;;12.00;99.90;;;;;;5044386;28;20379;-78
2022/06/07 03:53:14;;;;;;;11.20;7.47;;;12.10;99.90;;;;;;5038814;28;20475;-80
2022/06/07 03:55:44;;;;;;;13.30;7.77;;;12.20;99.80;;;;;;5043358;28;20836;-80
2022/06/07 03:58:10;;;;;;;11.43;7.00;;;12.20;97.90;;;;;;5043360;28;20386;-78
2022/06/07 04:00:36;;;;;;;18.27;7.85;;;12.30;96.20;;;;;;5042469;28;20391;-80
2022/06/07 04:03:02;;;;;;;11.35;6.50;;;12.40;94.90;;;;;;5049762;28;20421;-81
2022/06/07 04:05:27;;;;;;;9.40;6.20;;;12.40;93.80;;;;;;5054197;28;20418;-78
2022/06/07 04:08:11;;;;;;;12.43;6.50;;;12.50;90.60;;;;;;5043331;28;20442;-78
2022/06/07 04:10:54;;;;;;;12.13;6.03;;;12.60;89.40;;;;;;5067114;28;20395;-77
2022/06/07 04:13:22;;;;;;;9.50;6.00;;;12.70;86.50;;;;;;5060621;28;20483;-78
2022/06/07 04:15:48;;;;;;;14.85;6.50;;;13.00;82.00;;;;;;5057898;28;20421;-78
2022/06/07 04:18:15;;;;;;;10.82;5.50;;;13.00;80.10;;;;;;5062212;28;20419;-79
2022/06/07 04:20:40;;;;;;;7.32;5.20;;;13.10;79.60;;;;;;5045073;28;20426;-81
2022/06/07 04:23:07;;;;;;;8.50;5.50;;;13.20;77.20;;;;;;5056861;28;20398;-78
2022/06/07 04:25:35;;;;;;;13.48;5.70;;;13.40;75.90;;;;;;5041301;28;20894;-81
2022/06/07 04:28:01;;;;;;;14.55;5.35;;;13.50;73.20;;;;;;5056565;28;20427;-79
2022/06/07 04:30:26;;;;;;;9.05;4.57;;;13.80;70.10;;;;;;5065624;28;20411;-77
2022/06/07 04:32:52;;;;;;;10.20;5.17;;;14.10;65.80;;;;;;5073643;28;20381;-76
2022/06/07 04:35:18;;;;;;;11.50;4.90;;;14.30;64.20;;;;;;5044533;28;20435;-79
2022/06/07 04:37:48;;;;;;;11.02;5.20;;;14.60;58.60;;;;;;5037498;28;20425;-79
2022/06/07 04:40:14;;;;;;;8.70;4.40;;;14.80;57.70;;;;;;5054433;28;20457;-80
2022/06/07 04:42:41;;;;;;;9.60;3.97;;;15.00;54.40;;;;;;5069632;28;20827;-80
2022/06/07 04:45:11;;;;;;;12.10;4.60;;;15.10;53.50;;;;;;5068246;28;20445;-79
2022/06/07 04:47:37;;;;;;;9.90;3.90;;;15.10;52.20;;;;;;5056402;28;20481;-79
2022/06/07 04:50:08;;;;;;;7.80;4.20;;;15.20;50.60;;;;;;5042782;28;20850;-80
2022/06/07 04:52:34;;;;;;;13.35;4.00;;;15.30;50.30;;;;;;5067716;28;20433;-80
2022/06/07 04:55:00;;;;;;;7.00;3.83;;;15.50;47.60;;;;;;5063986;28;20403;-78
2022/06/07 04:57:25;;;;;;;7.60;4.00;;;15.60;47.50;;;;;;5061923;28;20392;-78
2022/06/07 04:59:51;;;;;;;8.35;4.22;;;15.70;47.50;;;;;;5069894;28;20416;-79
2022/06/07 05:02:16;;;;;;;9.30;4.00;;;15.90;46.00;;;;;;5052193;28;20395;-80
2022/06/07 05:04:42;;;;;;;8.73;3.60;;;16.00;43.80;;;;;;5041378;28;20889;-79
2022/06/07 05:07:08;;;;;;;6.60;3.17;;;16.10;42.80;;;;;;5036058;28;20434;-78
2022/06/07 05:09:33;;;;;;;7.00;3.60;;;16.30;41.00;;;;;;5043401;28;20451;-78
2022/06/07 05:11:59;;;;;;;8.35;3.80;;;16.30;39.20;;;;;;5041494;28;20405;-80
2022/06/07 05:14:25;;;;;;;8.47;3.30;;;16.30;37.60;;;;;;5040697;28;20429;-78
2022/06/07 05:17:17;;;;;;;9.90;3.00;;;16.40;36.10;;;;;;5024133;28;20393;-78
2022/06/07 05:19:43;;;;;;;8.50;3.90;;;16.50;35.70;;;;;;5053450;28;20409;-81
2022/06/07 05:22:09;;;;;;;6.43;3.67;;;16.50;35.10;;;;;;5039903;28;20399;-80
2022/06/07 05:24:35;;;;;;;7.37;3.13;;;16.70;34.90;;;;;;5040134;28;20383;-78
2022/06/07 05:27:03;;;;;;;9.57;3.30;;;16.60;34.60;;;;;;5039431;28;20787;-79
2022/06/07 05:29:38;;;;;;;6.75;3.30;;;16.70;34.90;;;;;;5034139;28;20407;-79
2022/06/07 05:32:04;;;;;;;4.90;2.92;;;16.80;34.60;;;;;;5048274;28;20427;-78
2022/06/07 05:34:32;;;;;;;5.75;3.10;;;16.70;34.00;;;;;;5042236;28;20387;-79
2022/06/07 05:36:57;;;;;;;7.25;3.20;;;16.90;33.30;;;;;;5040245;28;20395;-80
2022/06/07 05:39:28;;;;;;;5.63;3.25;;;16.90;33.60;;;;;;5044927;28;20761;-79
2022/06/07 05:41:54;;;;;;;8.93;3.13;;;16.90;33.50;;;;;;5032062;28;20394;-80
2022/06/07 05:44:21;;;;;;;7.20;3.40;;;16.90;32.80;;;;;;5054941;28;20398;-83
2022/06/07 05:46:48;;;;;;;10.32;3.50;;;17.00;33.00;;;;;;5026863;28;20419;-75
2022/06/07 05:49:15;;;;;;;4.38;3.10;;;16.90;32.90;;;;;;5040182;28;20408;-78
2022/06/07 05:51:40;;;;;;;7.13;3.45;;;17.10;32.70;;;;;;5055792;28;20532;-77
2022/06/07 05:54:07;;;;;;;9.95;3.55;;;17.30;31.50;;;;;;5050477;28;20403;-78
2022/06/07 05:56:33;;;;;;;5.10;3.00;;;17.10;33.00;;;;;;5045875;28;20468;-77
2022/06/07 05:58:59;;;;;;;10.05;3.75;;;17.00;32.70;;;;;;5044821;28;20500;-77
2022/06/07 06:01:28;;;;;;;6.75;3.20;;;16.90;33.20;;;;;;5044422;28;20388;-78
2022/06/07 06:03:55;;;;;;;6.37;3.20;;;16.70;34.20;;;;;;5030954;28;20489;-81
2022/06/07 06:06:21;;;;;;;9.68;2.90;;;16.60;34.30;;;;;;5046084;28;20466;-77
2022/06/07 06:11:32;;;;;;;7.53;3.20;;;16.50;34.30;;;;;;5036143;28;20434;-77
2022/06/07 06:13:58;;;;;;;9.50;3.00;;;16.50;34.50;;;;;;5040214;28;20417;-80
2022/06/07 06:16:24;;;;;;;9.18;3.00;;;16.50;33.90;;;;;;5042565;28;20411;-78
2022/06/07 06:18:53;;;;;;;10.20;3.20;;;16.50;34.30;;;;;;5043115;28;20410;-80
2022/06/07 06:21:21;;;;;;;6.93;3.47;;;16.50;34.80;;;;;;5041769;28;20397;-79
2022/06/07 06:23:47;;;;;;;6.27;2.90;;;16.60;33.90;;;;;;5020659;28;20418;-79
2022/06/07 06:26:15;;;;;;;5.57;2.80;;;16.80;33.70;;;;;;5016339;28;21843;-75
2022/06/07 06:28:41;;;;;;;7.43;3.33;;;16.90;33.60;;;;;;5014810;28;20461;-76
2022/06/07 06:31:09;;;;;;;6.90;3.30;;;17.00;32.70;;;;;;5024363;28;20490;-78
2022/06/07 06:33:39;;;;;;;4.65;3.00;;;17.00;33.30;;;;;;5030375;28;20405;-75
2022/06/07 06:36:07;;;;;;;5.57;3.10;;;16.90;33.50;;;;;;5033687;28;20444;-77
2022/06/07 06:38:32;;;;;;;11.40;3.13;;;16.90;33.40;;;;;;5031679;28;20461;-75
2022/06/07 06:40:59;;;;;;;9.23;3.40;;;17.10;32.80;;;;;;5035438;28;20421;-78
2022/06/07 06:43:24;;;;;;;5.90;3.10;;;17.20;32.80;;;;;;5013799;28;20422;-78
2022/06/07 06:45:50;;;;;;;6.22;2.95;;;17.50;31.00;;;;;;5045182;28;20399;-82
2022/06/07 06:48:16;;;;;;;7.25;3.10;;;17.80;28.80;;;;;;5024857;28;20410;-82
2022/06/07 06:50:42;;;;;;;5.90;2.60;;;18.10;27.50;;;;;;5023526;28;20406;-79
2022/06/07 06:53:08;;;;;;;6.10;2.78;;;18.40;27.60;;;;;;5045900;28;20394;-76
2022/06/07 06:55:34;;;;;;;12.43;2.90;;;18.60;26.90;;;;;;5048454;28;20450;-82
2022/06/07 06:57:59;;;;;;;5.83;2.77;;;18.70;25.40;;;;;;5045674;28;20423;-80
2022/06/07 07:00:26;;;;;;;8.75;2.85;;;18.50;25.70;;;;;;5042573;28;20780;-78
2022/06/07 07:02:53;;;;;;;6.27;3.17;;;18.00;27.00;;;;;;5047234;28;20490;-79
2022/06/07 07:05:19;;;;;;;9.18;2.92;;;17.70;28.90;;;;;;5033521;28;20430;-80
2022/06/07 07:07:46;;;;;;;9.52;2.95;;;17.60;30.10;;;;;;5052857;28;20430;-80
2022/06/07 07:10:13;;;;;;;7.85;3.08;;;17.60;29.70;;;;;;5053373;28;20417;-79
2022/06/07 07:12:39;;;;;;;6.47;2.60;;;17.60;30.40;;;;;;5051879;28;20562;-80
2022/06/07 07:15:08;;;;;;;10.95;3.40;;;17.80;29.50;;;;;;5051968;28;20515;-81
2022/06/07 07:17:33;;;;;;;7.85;3.20;;;18.00;29.30;;;;;;5051230;28;20399;-81
2022/06/07 07:19:59;;;;;;;8.38;3.08;;;18.20;28.90;;;;;;5057776;28;20433;-82
2022/06/07 07:22:25;;;;;;;7.15;2.70;;;18.40;26.30;;;;;;5036662;28;20421;-82
2022/06/07 07:24:51;;;;;;;7.22;3.20;;;18.70;25.90;;;;;;5054063;28;20387;-80
2022/06/07 07:27:19;;;;;;;8.50;2.90;;;18.90;24.40;;;;;;5049424;28;20422;-78
2022/06/07 07:29:46;;;;;;;5.55;2.55;;;19.00;24.20;;;;;;5040481;28;20423;-81
2022/06/07 07:32:12;;;;;;;7.90;2.70;;;19.20;23.60;;;;;;5041557;28;20413;-75
2022/06/07 07:34:38;;;;;;;10.35;2.78;;;19.50;23.40;;;;;;5044099;28;20883;-74
2022/06/07 07:37:03;;;;;;;5.73;2.63;;;19.60;22.10;;;;;;5053769;23;20993;-71
2022/06/07 07:39:29;;;;;;;9.20;2.92;;;19.70;22.10;;;;;;5049554;28;20774;-72
2022/06/07 07:41:55;;;;;;;7.32;2.70;;;19.60;22.90;;;;;;5054728;28;20472;-72
2022/06/07 07:44:22;;;;;;;5.50;3.00;;;19.30;24.30;;;;;;5053744;28;20394;-71
2022/06/07 07:46:51;;;;;;;4.03;2.60;;;19.10;24.40;;;;;;5058809;28;20413;-71
2022/06/07 07:49:19;;;;;;;6.90;2.70;;;19.00;24.80;;;;;;5054484;28;20897;-73
2022/06/07 07:51:47;;;;;;;5.30;2.40;;;19.10;24.50;;;;;;5048006;28;20405;-71
2022/06/07 07:54:16;;;;;;;6.63;2.50;;;19.10;24.50;;;;;;5051148;28;20400;-72
2022/06/07 07:56:43;;;;;;;4.68;2.17;;;18.90;24.60;;;;;;5050148;28;20411;-70
2022/06/07 07:59:12;;;;;;;7.35;2.42;;;19.10;23.40;;;;;;5050269;28;20393;-73
2022/06/07 08:01:38;;;;;;;5.28;3.20;;;19.10;23.10;;;;;;5052282;28;20784;-75
2022/06/07 08:04:04;;;;;;;7.05;3.28;;;19.10;22.90;;;;;;5055541;28;20742;-76
2022/06/07 08:06:31;;;;;;;5.20;2.58;;;19.10;23.40;;;;;;5051081;28;20440;-74
2022/06/07 08:09:00;;;;;;;3.25;2.60;;;19.20;22.70;;;;;;5030863;28;20406;-74
2022/06/07 08:11:30;;;;;;;6.97;2.50;;;19.50;22.00;;;;;;5047633;28;20412;-78
2022/06/07 08:13:56;;;;;;;4.95;2.20;;;19.60;21.00;;;;;;5052265;28;20430;-77
2022/06/07 08:16:23;;;;;;;7.57;2.60;;;19.70;20.10;;;;;;5046519;28;20405;-76
2022/06/07 08:18:48;;;;;;;6.05;2.22;;;19.60;19.90;;;;;;5053159;28;20421;-75
2022/06/07 08:21:20;;;;;;;8.50;2.20;;;19.80;20.40;;;;;;5048857;28;20463;-75
2022/06/07 08:23:47;;;;;;;9.02;2.42;;;20.10;19.30;;;;;;5046760;28;20401;-77
2022/06/07 08:26:12;;;;;;;6.00;2.20;;;20.40;18.80;;;;;;5051086;28;20409;-74
2022/06/07 08:28:38;;;;;;;5.50;2.20;;;20.80;18.20;;;;;;5047446;28;20412;-74
2022/06/07 08:31:11;;;;;;;4.88;2.20;;;21.10;17.50;;;;;;5048577;28;20398;-73
2022/06/07 08:39:05;;;;;;;5.22;2.10;;;21.50;15.60;;;;;;5047506;28;21922;-74
2022/06/07 08:41:59;;;;;;;5.10;2.00;;;21.30;16.40;;;;;;5050059;28;20413;-74
2022/06/07 08:44:43;;;;;;;4.47;2.00;;;21.40;16.40;;;;;;5027510;28;20969;-74
2022/06/07 08:47:23;;;;;;;4.05;1.98;;;21.70;15.80;;;;;;5046934;28;20409;-74
2022/06/07 08:49:50;;;;;;;4.10;1.83;;;21.90;15.20;;;;;;5048051;28;20390;-73
2022/06/07 08:52:22;;;;;;;5.03;2.25;;;22.10;14.70;;;;;;5048124;28;20421;-74
2022/06/07 08:54:48;;;;;;;3.78;2.13;;;22.10;15.40;;;;;;5046319;28;20892;-74
2022/06/07 08:57:24;;;;;;;6.70;2.55;;;21.90;15.30;;;;;;5048085;28;20419;-74
2022/06/07 08:59:54;;;;;;;5.70;2.00;;;21.70;16.40;;;;;;5055859;28;20395;-74
2022/06/07 09:02:31;;;;;;;6.90;2.45;;;21.80;16.60;;;;;;5051629;28;20421;-74
2022/06/07 09:04:58;;;;;;;4.65;1.95;;;22.20;15.50;;;;;;5051046;28;20401;-74
2022/06/07 09:07:25;;;;;;;5.37;1.90;;;22.20;15.10;;;;;;5044733;28;20506;-74
2022/06/07 09:12:56;;;;;;;6.13;1.90;;;22.70;14.00;;;;;;5049561;28;20799;-74
2022/06/07 09:15:25;;;;;;;4.07;1.80;;;22.60;14.00;;;;;;5046256;28;20382;-73
2022/06/07 09:17:55;;;;;;;3.35;1.90;;;22.40;14.50;;;;;;5048912;28;20545;-74
2022/06/07 09:20:26;;;;;;;5.47;2.00;;;22.30;15.20;;;;;;5045455;28;20411;-73
2022/06/07 09:23:01;;;;;;;10.23;2.40;;;22.20;15.40;;;;;;5049049;28;20417;-73
2022/06/07 09:25:38;;;;;;;5.85;2.00;;;22.00;15.80;;;;;;5048204;28;20496;-73
2022/06/07 09:28:10;;;;;;;6.63;2.15;;;22.00;15.50;;;;;;5049110;28;21007;-74
2022/06/07 09:30:43;;;;;;;4.43;2.40;;;22.30;15.80;;;;;;5047392;28;20760;-72
2022/06/07 09:33:36;;;;;;;4.75;2.05;;;22.70;15.20;;;;;;5039317;28;20407;-73
2022/06/07 09:36:09;;;;;;;4.25;1.92;;;23.20;14.80;;;;;;5033031;28;20437;-73
2022/06/07 09:38:40;;;;;;;7.07;2.10;;;23.70;14.10;;;;;;5044927;28;20395;-72
2022/06/07 09:41:36;;;;;;;3.65;2.10;;;24.00;13.50;;;;;;5046012;28;20500;-73
2022/06/07 09:44:21;;;;;;;5.00;1.70;;;23.90;13.10;;;;;;5046515;28;20453;-72
2022/06/07 09:46:58;;;;;;;6.53;2.17;;;23.70;13.60;;;;;;5045614;28;20408;-72
2022/06/07 09:49:29;;;;;;;3.08;1.70;;;24.00;13.00;;;;;;5043555;28;20939;-73
2022/06/07 09:52:02;;;;;;;2.25;1.45;;;24.10;12.60;;;;;;5047203;28;20433;-73
2022/06/07 09:54:27;;;;;;;2.10;1.50;;;24.30;12.60;;;;;;5040663;28;20401;-72
2022/06/07 09:57:21;;;;;;;5.03;2.17;;;24.20;12.40;;;;;;5042977;28;20874;-72
2022/06/07 10:00:06;;;;;;;4.70;1.80;;;24.30;12.60;;;;;;5044959;28;20401;-73
2022/06/07 10:02:58;;;;;;;3.03;1.75;;;24.20;13.10;;;;;;5050873;28;20401;-72
2022/06/07 10:05:32;;;;;;;5.00;1.85;;;24.20;12.60;;;;;;5060472;28;20409;-74
2022/06/07 10:08:16;;;;;;;5.35;2.00;;;24.20;12.60;;;;;;5048590;28;20843;-73
2022/06/07 10:11:07;;;;;;;3.08;1.50;;;24.40;12.60;;;;;;5045945;28;20400;-72
2022/06/07 10:13:41;;;;;;;4.25;1.88;;;24.60;11.80;;;;;;5045905;28;20762;-73
2022/06/07 10:16:32;;;;;;;5.10;1.33;;;24.40;12.80;;;;;;5049488;28;20409;-73
2022/06/07 10:19:08;;;;;;;4.70;1.40;;;24.20;12.60;;;;;;5047725;28;20417;-73
2022/06/07 10:21:55;;;;;;;4.63;1.63;;;23.60;13.10;;;;;;5043123;28;20409;-72
2022/06/07 10:24:36;;;;;;;4.70;1.80;;;23.20;14.70;;;;;;5048679;28;20471;-73
2022/06/07 10:27:11;;;;;;;4.38;1.55;;;23.30;14.80;;;;;;5051939;28;20428;-73
2022/06/07 10:29:50;;;;;;;2.90;1.40;;;23.40;14.50;;;;;;5040030;28;20436;-73
2022/06/07 10:32:37;;;;;;;2.97;1.10;;;23.50;14.50;;;;;;5046532;28;20411;-73
2022/06/07 10:35:39;;;;;;;3.10;1.50;;;23.50;14.20;;;;;;5042877;28;20517;-72
2022/06/07 10:38:39;;;;;;;3.83;1.40;;;23.70;13.50;;;;;;5042144;28;20427;-73
2022/06/07 10:41:14;;;;;;;2.70;1.50;;;23.60;13.30;;;;;;5046046;28;20413;-73
2022/06/07 10:44:11;;;;;;;5.75;1.63;;;23.30;13.80;;;;;;5046675;28;20491;-73
2022/06/07 10:46:40;;;;;;;5.22;1.50;;;23.50;14.20;;;;;;5043650;28;20401;-72
2022/06/07 10:49:28;;;;;;;3.60;1.60;;;23.90;13.30;;;;;;5044573;28;20497;-73
2022/06/07 10:52:45;;;;;;;4.57;1.48;;;24.30;12.30;;;;;;5040724;28;20416;-73
2022/06/07 10:55:49;;;;;;;4.00;1.70;;;24.50;11.80;;;;;;5040093;28;21049;-74
2022/06/07 10:58:27;;;;;;;2.10;1.50;;;24.70;11.70;;;;;;5041252;28;20442;-73
2022/06/07 11:01:01;;;;;;;4.80;1.70;;;25.20;10.70;;;;;;5047252;28;20846;-73
2022/06/07 11:03:45;;;;;;;6.20;1.80;;;25.10;11.00;;;;;;5045252;28;20420;-74
2022/06/07 11:09:48;;;;;;;4.40;1.60;;;25.00;10.90;;;;;;5047105;28;20863;-73
2022/06/07 11:12:26;;;;;;;5.90;1.50;;;24.90;10.90;;;;;;5042086;28;20760;-73
2022/06/07 11:15:20;;;;;;;3.08;1.65;;;24.90;11.50;;;;;;5044266;28;20484;-74
2022/06/07 11:18:09;;;;;;;3.70;1.75;;;24.80;11.40;;;;;;5046535;28;20401;-72
2022/06/07 11:20:36;;;;;;;2.90;1.70;;;24.90;11.60;;;;;;5046637;28;20405;-72
2022/06/07 11:23:23;;;;;;;3.50;1.63;;;25.10;10.90;;;;;;5035037;28;20405;-73
2022/06/07 11:26:00;;;;;;;7.77;2.00;;;25.20;11.00;;;;;;5045524;28;20456;-72
2022/06/07 11:28:30;;;;;;;3.80;1.67;;;25.40;10.60;;;;;;5046885;28;20420;-72
2022/06/07 11:31:19;;;;;;;2.65;1.50;;;25.40;10.50;;;;;;5047662;28;20786;-73
2022/06/07 11:33:50;;;;;;;3.97;1.70;;;25.50;10.30;;;;;;5046503;28;20413;-73
2022/06/07 11:36:25;;;;;;;5.63;1.80;;;25.10;10.60;;;;;;5044904;28;20410;-74
2022/06/07 11:38:56;;;;;;;3.78;1.88;;;24.90;11.40;;;;;;5046610;28;20412;-72
2022/06/07 11:41:37;;;;;;;1.92;1.45;;;25.20;11.40;;;;;;5046583;28;20762;-72
2022/06/07 11:44:08;;;;;;;4.85;2.00;;;25.30;10.90;;;;;;5046488;28;20387;-73
2022/06/07 11:46:33;;;;;;;4.13;2.00;;;25.60;10.20;;;;;;5044159;28;20804;-73
2022/06/07 11:49:18;;;;;;;3.50;1.80;;;25.80;10.50;;;;;;5048057;28;20436;-73
2022/06/07 11:51:55;;;;;;;3.33;2.00;;;25.60;10.10;;;;;;5044729;28;20532;-73
2022/06/07 11:54:34;;;;;;;5.60;2.00;;;25.30;10.70;;;;;;5044998;28;20412;-72
2022/06/07 11:57:15;;;;;;;3.00;2.00;;;25.10;11.80;;;;;;5047082;28;20473;-72
2022/06/07 11:59:47;;;;;;;4.90;1.90;;;24.90;11.70;;;;;;5045319;28;20410;-72
2022/06/07 12:02:16;;;;;;;3.20;1.70;;;24.70;12.30;;;;;;5046385;28;20405;-72
2022/06/07 12:04:43;;;;;;;2.80;2.03;;;24.60;12.40;;;;;;5047915;28;20523;-72
2022/06/07 12:07:43;;;;;;;4.00;1.70;;;24.40;12.40;;;;;;5050358;28;20961;-74
2022/06/07 12:10:18;;;;;;;3.77;1.90;;;24.20;13.10;;;;;;5045495;28;20481;-73
2022/06/07 12:13:11;;;;;;;7.88;1.90;;;23.90;13.60;;;;;;5047819;28;20397;-73
2022/06/07 12:15:42;;;;;;;6.35;1.90;;;23.50;14.30;;;;;;5048907;28;20822;-74
2022/06/07 12:18:18;;;;;;;7.55;2.22;;;22.90;15.40;;;;;;5044033;28;20566;-75
2022/06/07 12:21:18;;;;;;;3.80;1.60;;;22.60;16.00;;;;;;5047581;28;20469;-73
2022/06/07 12:23:59;;;;;;;10.82;1.90;;;22.60;16.70;;;;;;5042834;28;20424;-75
2022/06/07 12:26:28;;;;;;;4.07;2.00;;;22.50;16.80;;;;;;5051294;28;20857;-74
2022/06/07 12:28:57;;;;;;;4.85;2.40;;;22.10;17.50;;;;;;5048780;28;20849;-74
2022/06/07 12:31:30;;;;;;;7.82;2.55;;;22.00;18.20;;;;;;5046319;28;20436;-74
2022/06/07 12:33:59;;;;;;;3.70;2.10;;;22.00;18.80;;;;;;5047330;28;20463;-74
2022/06/07 12:36:39;;;;;;;5.43;1.90;;;21.80;19.40;;;;;;5049347;28;20881;-73
2022/06/07 12:39:13;;;;;;;4.85;2.13;;;21.70;18.70;;;;;;5048784;28;20409;-74
2022/06/07 12:41:53;;;;;;;6.97;2.08;;;21.60;19.00;;;;;;5029919;28;21087;-75
2022/06/07 12:44:24;;;;;;;8.70;2.80;;;21.50;19.80;;;;;;5047433;28;20405;-74
2022/06/07 12:46:50;;;;;;;7.05;2.78;;;21.60;20.00;;;;;;5048636;28;20413;-75
2022/06/07 12:49:28;;;;;;;6.65;3.28;;;21.60;20.80;;;;;;5044641;28;20762;-74
2022/06/07 12:51:56;;;;;;;9.75;2.60;;;21.70;20.30;;;;;;5045201;28;20401;-73
2022/06/07 12:54:22;;;;;;;7.18;2.55;;;21.70;20.00;;;;;;5048248;28;21264;-73
2022/06/07 12:56:51;;;;;;;5.37;3.17;;;21.70;20.60;;;;;;5047942;28;20417;-73
2022/06/07 12:59:39;;;;;;;8.13;3.40;;;21.80;23.50;;;;;;5050289;28;20421;-73
2022/06/07 13:02:16;;;;;;;5.57;3.00;;;21.60;25.70;;;;;;5052881;28;20444;-74
2022/06/07 13:04:49;;;;;;;8.25;3.85;;;21.40;29.40;;;;;;5054726;28;20408;-75
2022/06/07 13:07:29;;;;;;;8.13;3.93;;;21.30;31.60;;;;;;5048116;28;20395;-74
2022/06/07 13:10:00;;;;;;;6.20;4.50;;;21.20;31.30;;;;;;5052536;28;20680;-74
2022/06/07 13:12:42;;;;;;;7.28;4.30;;;21.20;30.90;;;;;;5051555;28;20742;-73
2022/06/07 13:15:16;;;;;;;5.97;3.72;;;21.40;31.40;;;;;;5048465;28;20412;-73
2022/06/07 13:18:06;;;;;;;8.15;5.18;;;21.70;29.70;;;;;;5051561;28;20440;-72
2022/06/07 13:20:35;;;;;;;9.67;5.60;;;21.30;33.20;;;;;;5050462;28;20820;-74
2022/06/07 13:23:10;;;;;;;10.10;6.30;;;20.80;37.50;;;;;;5048565;28;20514;-73